ROU1974 CYUL-CYQB
Flight info
| Callsign | ROU1974 |
|---|---|
| Flight time | 0h 33m |
| Altitude | 21000 |
| Route | ANTEG DCT OBRON DCT MOBUB DCT PESAC |
| Aircraft | A319/M-SDE3FGHIRWY/LB1 |
Departure
| Time | 2026-05-06 22:38 |
|---|---|
| Airport | Montreal / Pierre Elliott Trudeau International Airport (CYUL) |
Arrival
| Time | 2026-05-06 23:12 |
|---|---|
| Airport | Quebec Jean Lesage International Airport (CYQB) |
| Time | Latitude | Longitude | Altitude | Speed | Heading |
|---|---|---|---|---|---|
| 2026-05-06 22:04 | 45.45880 | -73.74600 | 104 ft | 0 kts | 177° |
| 2026-05-06 22:23 | 45.45897 | -73.74601 | 104 ft | 4 kts | 177° |
| 2026-05-06 22:23 | 45.45924 | -73.74603 | 104 ft | 4 kts | 174° |
| 2026-05-06 22:24 | 45.45947 | -73.74614 | 104 ft | 4 kts | 128° |
| 2026-05-06 22:24 | 45.45955 | -73.74643 | 105 ft | 1 kts | 88° |
| 2026-05-06 22:24 | 45.45955 | -73.74650 | 105 ft | 0 kts | 88° |
| 2026-05-06 22:28 | 45.45955 | -73.74630 | 105 ft | 5 kts | 88° |
| 2026-05-06 22:28 | 45.45958 | -73.74600 | 105 ft | 0 kts | 82° |
| 2026-05-06 22:29 | 45.45959 | -73.74586 | 105 ft | 3 kts | 82° |
| 2026-05-06 22:29 | 45.45967 | -73.74532 | 104 ft | 9 kts | 76° |
| 2026-05-06 22:29 | 45.45992 | -73.74434 | 104 ft | 11 kts | 69° |
| 2026-05-06 22:30 | 45.45971 | -73.74327 | 102 ft | 12 kts | 109° |
| 2026-05-06 22:30 | 45.46011 | -73.74225 | 102 ft | 13 kts | 43° |
| 2026-05-06 22:30 | 45.46076 | -73.74136 | 102 ft | 13 kts | 43° |
| 2026-05-06 22:30 | 45.46140 | -73.74054 | 105 ft | 12 kts | 41° |
| 2026-05-06 22:31 | 45.46203 | -73.73975 | 105 ft | 12 kts | 41° |
| 2026-05-06 22:31 | 45.46267 | -73.73892 | 105 ft | 12 kts | 44° |
| 2026-05-06 22:31 | 45.46329 | -73.73808 | 107 ft | 12 kts | 43° |
| 2026-05-06 22:31 | 45.46390 | -73.73728 | 106 ft | 12 kts | 43° |
| 2026-05-06 22:32 | 45.46452 | -73.73646 | 108 ft | 13 kts | 42° |
| 2026-05-06 22:32 | 45.46525 | -73.73551 | 109 ft | 15 kts | 43° |
| 2026-05-06 22:32 | 45.46606 | -73.73444 | 109 ft | 17 kts | 43° |
| 2026-05-06 22:32 | 45.46697 | -73.73326 | 111 ft | 18 kts | 42° |
| 2026-05-06 22:33 | 45.46795 | -73.73197 | 112 ft | 20 kts | 43° |
| 2026-05-06 22:33 | 45.46900 | -73.73059 | 114 ft | 21 kts | 43° |
| 2026-05-06 22:33 | 45.47012 | -73.72913 | 117 ft | 22 kts | 43° |
| 2026-05-06 22:33 | 45.47130 | -73.72758 | 117 ft | 24 kts | 43° |
| 2026-05-06 22:34 | 45.47256 | -73.72593 | 117 ft | 25 kts | 43° |
| 2026-05-06 22:34 | 45.47388 | -73.72420 | 119 ft | 26 kts | 43° |
| 2026-05-06 22:34 | 45.47518 | -73.72250 | 119 ft | 26 kts | 43° |
| 2026-05-06 22:34 | 45.47642 | -73.72088 | 121 ft | 22 kts | 43° |
| 2026-05-06 22:35 | 45.47743 | -73.71955 | 120 ft | 18 kts | 42° |
| 2026-05-06 22:35 | 45.47804 | -73.71870 | 119 ft | 11 kts | 57° |
| 2026-05-06 22:35 | 45.47792 | -73.71776 | 119 ft | 10 kts | 123° |
| 2026-05-06 22:35 | 45.47766 | -73.71720 | 122 ft | 0 kts | 123° |
| 2026-05-06 22:36 | 45.47763 | -73.71713 | 122 ft | 3 kts | 123° |
| 2026-05-06 22:36 | 45.47741 | -73.71677 | 123 ft | 7 kts | 135° |
| 2026-05-06 22:37 | 45.47702 | -73.71632 | 125 ft | 7 kts | 157° |
| 2026-05-06 22:37 | 45.47661 | -73.71658 | 125 ft | 7 kts | 223° |
| 2026-05-06 22:37 | 45.47660 | -73.71660 | 125 ft | 0 kts | 223° |
| 2026-05-06 22:37 | 45.47520 | -73.71845 | 123 ft | 67 kts | 223° |
| 2026-05-06 22:38 | 45.46993 | -73.72533 | 118 ft | 137 kts | 223° |
| 2026-05-06 22:38 | 45.46214 | -73.73552 | 533 ft | 155 kts | 223° |
| 2026-05-06 22:38 | 45.45432 | -73.74606 | 1320 ft | 154 kts | 224° |
| 2026-05-06 22:38 | 45.44659 | -73.75679 | 2046 ft | 160 kts | 225° |
| 2026-05-06 22:39 | 45.43812 | -73.76862 | 2480 ft | 182 kts | 226° |
| 2026-05-06 22:39 | 45.42836 | -73.78199 | 2867 ft | 207 kts | 225° |
| 2026-05-06 22:39 | 45.41732 | -73.79704 | 3376 ft | 231 kts | 226° |
| 2026-05-06 22:39 | 45.40508 | -73.81369 | 3932 ft | 255 kts | 225° |
| 2026-05-06 22:40 | 45.39394 | -73.83381 | 4745 ft | 264 kts | 247° |
| 2026-05-06 22:40 | 45.39058 | -73.85922 | 5747 ft | 264 kts | 276° |
| 2026-05-06 22:40 | 45.39589 | -73.88370 | 6579 ft | 266 kts | 300° |
| 2026-05-06 22:40 | 45.40845 | -73.90269 | 6878 ft | 266 kts | 322° |
| 2026-05-06 22:41 | 45.44398 | -73.91842 | 8048 ft | 285 kts | 2° |
| 2026-05-06 22:41 | 45.46311 | -73.90904 | 8919 ft | 303 kts | 30° |
| 2026-05-06 22:41 | 45.47983 | -73.88985 | 9716 ft | 315 kts | 38° |
| 2026-05-06 22:42 | 45.49663 | -73.86893 | 10306 ft | 330 kts | 39° |
| 2026-05-06 22:42 | 45.51442 | -73.84644 | 10628 ft | 354 kts | 39° |
| 2026-05-06 22:42 | 45.53329 | -73.82251 | 11134 ft | 369 kts | 39° |
| 2026-05-06 22:42 | 45.55268 | -73.79795 | 11884 ft | 376 kts | 39° |
| 2026-05-06 22:43 | 45.57241 | -73.77299 | 12654 ft | 382 kts | 39° |
| 2026-05-06 22:43 | 45.59253 | -73.74761 | 13404 ft | 388 kts | 38° |
| 2026-05-06 22:43 | 45.61299 | -73.72187 | 14099 ft | 394 kts | 38° |
| 2026-05-06 22:43 | 45.63372 | -73.69587 | 14741 ft | 399 kts | 38° |
| 2026-05-06 22:44 | 45.65445 | -73.66987 | 15374 ft | 405 kts | 39° |
| 2026-05-06 22:44 | 45.67574 | -73.64312 | 16005 ft | 410 kts | 39° |
| 2026-05-06 22:44 | 45.69733 | -73.61591 | 16647 ft | 416 kts | 39° |
| 2026-05-06 22:44 | 45.71922 | -73.58829 | 17291 ft | 422 kts | 39° |
| 2026-05-06 22:45 | 45.74138 | -73.56033 | 17921 ft | 427 kts | 39° |
| 2026-05-06 22:45 | 45.76381 | -73.53202 | 18493 ft | 432 kts | 39° |
| 2026-05-06 22:45 | 45.78645 | -73.50338 | 19080 ft | 436 kts | 39° |
| 2026-05-06 22:45 | 45.80927 | -73.47445 | 19676 ft | 439 kts | 39° |
| 2026-05-06 22:46 | 45.83225 | -73.44525 | 20287 ft | 443 kts | 39° |
| 2026-05-06 22:46 | 45.85534 | -73.41586 | 20720 ft | 445 kts | 39° |
| 2026-05-06 22:46 | 45.87771 | -73.38483 | 20848 ft | 448 kts | 46° |
| 2026-05-06 22:46 | 45.89909 | -73.35205 | 20874 ft | 451 kts | 46° |
| 2026-05-06 22:47 | 45.92027 | -73.31955 | 20876 ft | 451 kts | 46° |
| 2026-05-06 22:47 | 45.94173 | -73.28658 | 20867 ft | 451 kts | 46° |
| 2026-05-06 22:47 | 45.96320 | -73.25360 | 20866 ft | 452 kts | 46° |
| 2026-05-06 22:47 | 45.98468 | -73.22057 | 20868 ft | 452 kts | 46° |
| 2026-05-06 22:48 | 46.00619 | -73.18749 | 20869 ft | 452 kts | 46° |
| 2026-05-06 22:48 | 46.02766 | -73.15442 | 20868 ft | 452 kts | 46° |
| 2026-05-06 22:48 | 46.04916 | -73.12128 | 20865 ft | 452 kts | 46° |
| 2026-05-06 22:48 | 46.07061 | -73.08815 | 20845 ft | 452 kts | 46° |
| 2026-05-06 22:49 | 46.09202 | -73.05505 | 20862 ft | 451 kts | 46° |
| 2026-05-06 22:49 | 46.11342 | -73.02196 | 20886 ft | 451 kts | 46° |
| 2026-05-06 22:49 | 46.13482 | -72.98881 | 20874 ft | 449 kts | 46° |
| 2026-05-06 22:49 | 46.15584 | -72.95617 | 20852 ft | 441 kts | 46° |
| 2026-05-06 22:50 | 46.17634 | -72.92339 | 20623 ft | 439 kts | 50° |
| 2026-05-06 22:50 | 46.19462 | -72.88826 | 20299 ft | 436 kts | 53° |
| 2026-05-06 22:50 | 46.21260 | -72.85308 | 19976 ft | 435 kts | 53° |
| 2026-05-06 22:50 | 46.23052 | -72.81794 | 19656 ft | 433 kts | 53° |
| 2026-05-06 22:51 | 46.24840 | -72.78293 | 19339 ft | 432 kts | 53° |
| 2026-05-06 22:51 | 46.26617 | -72.74807 | 19023 ft | 430 kts | 53° |
| 2026-05-06 22:51 | 46.28386 | -72.71332 | 18734 ft | 429 kts | 53° |
| 2026-05-06 22:51 | 46.30154 | -72.67860 | 18429 ft | 427 kts | 53° |
| 2026-05-06 22:52 | 46.31910 | -72.64406 | 18128 ft | 426 kts | 53° |
| 2026-05-06 22:52 | 46.33659 | -72.60958 | 17776 ft | 424 kts | 54° |
| 2026-05-06 22:52 | 46.35395 | -72.57523 | 17430 ft | 421 kts | 54° |
| 2026-05-06 22:52 | 46.37118 | -72.54104 | 17088 ft | 419 kts | 53° |
| 2026-05-06 22:53 | 46.38829 | -72.50709 | 16750 ft | 416 kts | 53° |
| 2026-05-06 22:53 | 46.40529 | -72.47337 | 16397 ft | 413 kts | 53° |
| 2026-05-06 22:53 | 46.42218 | -72.43990 | 16079 ft | 410 kts | 53° |
| 2026-05-06 22:53 | 46.43897 | -72.40665 | 15757 ft | 407 kts | 53° |
| 2026-05-06 22:54 | 46.45564 | -72.37359 | 15434 ft | 404 kts | 53° |
| 2026-05-06 22:54 | 46.47185 | -72.34130 | 15115 ft | 398 kts | 53° |
| 2026-05-06 22:54 | 46.48802 | -72.30898 | 14795 ft | 392 kts | 53° |
| 2026-05-06 22:54 | 46.50394 | -72.27709 | 14476 ft | 387 kts | 53° |
| 2026-05-06 22:55 | 46.51966 | -72.24562 | 14165 ft | 384 kts | 53° |
| 2026-05-06 22:55 | 46.53537 | -72.21426 | 13859 ft | 381 kts | 53° |
| 2026-05-06 22:55 | 46.54972 | -72.18212 | 13539 ft | 378 kts | 63° |
| 2026-05-06 22:55 | 46.56026 | -72.14732 | 13195 ft | 375 kts | 69° |
| 2026-05-06 22:56 | 46.57005 | -72.11227 | 12851 ft | 373 kts | 69° |
| 2026-05-06 22:56 | 46.57977 | -72.07749 | 12514 ft | 369 kts | 69° |
| 2026-05-06 22:56 | 46.58937 | -72.04324 | 12191 ft | 364 kts | 69° |
| 2026-05-06 22:56 | 46.59879 | -72.00982 | 11863 ft | 359 kts | 68° |
| 2026-05-06 22:57 | 46.60874 | -71.97678 | 11529 ft | 352 kts | 65° |
| 2026-05-06 22:57 | 46.61922 | -71.94494 | 11207 ft | 346 kts | 64° |
| 2026-05-06 22:57 | 46.62631 | -71.92423 | 10993 ft | 344 kts | 63° |
| 2026-05-06 22:57 | 46.63699 | -71.89346 | 10649 ft | 336 kts | 63° |
| 2026-05-06 22:58 | 46.64742 | -71.86341 | 10335 ft | 329 kts | 63° |
| 2026-05-06 22:58 | 46.65755 | -71.83373 | 10032 ft | 325 kts | 64° |
| 2026-05-06 22:58 | 46.66749 | -71.80429 | 9742 ft | 322 kts | 64° |
| 2026-05-06 22:58 | 46.67722 | -71.77519 | 9416 ft | 318 kts | 64° |
| 2026-05-06 22:59 | 46.68681 | -71.74634 | 9097 ft | 314 kts | 64° |
| 2026-05-06 22:59 | 46.69626 | -71.71786 | 8784 ft | 310 kts | 64° |
| 2026-05-06 22:59 | 46.70559 | -71.68967 | 8468 ft | 306 kts | 64° |
| 2026-05-06 22:59 | 46.71470 | -71.66218 | 8156 ft | 297 kts | 63° |
| 2026-05-06 23:00 | 46.72397 | -71.63624 | 7852 ft | 287 kts | 55° |
| 2026-05-06 23:00 | 46.73617 | -71.61403 | 7556 ft | 275 kts | 42° |
| 2026-05-06 23:00 | 46.74964 | -71.59493 | 7253 ft | 267 kts | 41° |
| 2026-05-06 23:00 | 46.76280 | -71.57608 | 6983 ft | 262 kts | 42° |
| 2026-05-06 23:01 | 46.77568 | -71.55755 | 6743 ft | 258 kts | 42° |
| 2026-05-06 23:01 | 46.78837 | -71.53932 | 6498 ft | 254 kts | 42° |
| 2026-05-06 23:01 | 46.80088 | -71.52132 | 6249 ft | 251 kts | 42° |
| 2026-05-06 23:01 | 46.81322 | -71.50358 | 5980 ft | 248 kts | 43° |
| 2026-05-06 23:02 | 46.82545 | -71.48597 | 5723 ft | 246 kts | 43° |
| 2026-05-06 23:02 | 46.83759 | -71.46851 | 5443 ft | 243 kts | 43° |
| 2026-05-06 23:02 | 46.84958 | -71.45123 | 5184 ft | 241 kts | 43° |
| 2026-05-06 23:02 | 46.86133 | -71.43429 | 4929 ft | 239 kts | 43° |
| 2026-05-06 23:03 | 46.87314 | -71.41730 | 4678 ft | 237 kts | 43° |
| 2026-05-06 23:03 | 46.88484 | -71.40045 | 4409 ft | 235 kts | 43° |
| 2026-05-06 23:03 | 46.89659 | -71.38387 | 4143 ft | 232 kts | 39° |
| 2026-05-06 23:03 | 46.90898 | -71.36934 | 3992 ft | 225 kts | 37° |
| 2026-05-06 23:04 | 46.92110 | -71.35509 | 3985 ft | 222 kts | 38° |
| 2026-05-06 23:04 | 46.93315 | -71.34085 | 3992 ft | 222 kts | 38° |
| 2026-05-06 23:04 | 46.94517 | -71.32657 | 3990 ft | 222 kts | 37° |
| 2026-05-06 23:04 | 46.95643 | -71.31133 | 3990 ft | 217 kts | 43° |
| 2026-05-06 23:05 | 46.96704 | -71.29587 | 3990 ft | 214 kts | 43° |
| 2026-05-06 23:05 | 46.97746 | -71.28073 | 3995 ft | 213 kts | 45° |
| 2026-05-06 23:05 | 46.98444 | -71.26238 | 3998 ft | 203 kts | 77° |
| 2026-05-06 23:05 | 46.98408 | -71.24218 | 4006 ft | 198 kts | 107° |
| 2026-05-06 23:06 | 46.97699 | -71.22528 | 4017 ft | 195 kts | 136° |
| 2026-05-06 23:06 | 46.96735 | -71.21135 | 4012 ft | 194 kts | 137° |
| 2026-05-06 23:06 | 46.95777 | -71.19741 | 4013 ft | 194 kts | 137° |
| 2026-05-06 23:06 | 46.94656 | -71.18790 | 4000 ft | 184 kts | 171° |
| 2026-05-06 23:07 | 46.93419 | -71.18961 | 3885 ft | 180 kts | 205° |
| 2026-05-06 23:07 | 46.92459 | -71.20075 | 3642 ft | 175 kts | 227° |
| 2026-05-06 23:07 | 46.91598 | -71.21332 | 3408 ft | 174 kts | 226° |
| 2026-05-06 23:07 | 46.90748 | -71.22566 | 3189 ft | 171 kts | 226° |
| 2026-05-06 23:08 | 46.89913 | -71.23777 | 2972 ft | 167 kts | 226° |
| 2026-05-06 23:08 | 46.89091 | -71.24967 | 2762 ft | 165 kts | 226° |
| 2026-05-06 23:08 | 46.88285 | -71.26132 | 2564 ft | 161 kts | 226° |
| 2026-05-06 23:08 | 46.87509 | -71.27253 | 2350 ft | 153 kts | 226° |
| 2026-05-06 23:09 | 46.86758 | -71.28338 | 2138 ft | 150 kts | 226° |
| 2026-05-06 23:09 | 46.86025 | -71.29394 | 1933 ft | 149 kts | 226° |
| 2026-05-06 23:09 | 46.85318 | -71.30412 | 1736 ft | 137 kts | 226° |
| 2026-05-06 23:09 | 46.84657 | -71.31365 | 1549 ft | 131 kts | 226° |
| 2026-05-06 23:10 | 46.84014 | -71.32294 | 1373 ft | 129 kts | 226° |
| 2026-05-06 23:10 | 46.83379 | -71.33214 | 1187 ft | 127 kts | 226° |
| 2026-05-06 23:10 | 46.82752 | -71.34128 | 1008 ft | 128 kts | 226° |
| 2026-05-06 23:10 | 46.82125 | -71.35042 | 845 ft | 128 kts | 225° |
| 2026-05-06 23:11 | 46.81493 | -71.35951 | 696 ft | 127 kts | 224° |
| 2026-05-06 23:11 | 46.80864 | -71.36849 | 550 ft | 127 kts | 225° |
| 2026-05-06 23:11 | 46.80246 | -71.37762 | 363 ft | 126 kts | 224° |
| 2026-05-06 23:11 | 46.79633 | -71.38640 | 254 ft | 113 kts | 225° |
| 2026-05-06 23:12 | 46.79177 | -71.39298 | 253 ft | 68 kts | 224° |
| 2026-05-06 23:12 | 46.78959 | -71.39610 | 253 ft | 23 kts | 224° |
| 2026-05-06 23:12 | 46.78869 | -71.39708 | 253 ft | 12 kts | 177° |
| 2026-05-06 23:12 | 46.78842 | -71.39604 | 253 ft | 12 kts | 93° |
| 2026-05-06 23:13 | 46.78833 | -71.39482 | 253 ft | 12 kts | 97° |
| 2026-05-06 23:13 | 46.78848 | -71.39372 | 253 ft | 12 kts | 38° |
| 2026-05-06 23:13 | 46.78915 | -71.39303 | 253 ft | 12 kts | 35° |
| 2026-05-06 23:13 | 46.78981 | -71.39223 | 253 ft | 12 kts | 41° |
| 2026-05-06 23:14 | 46.79042 | -71.39137 | 253 ft | 12 kts | 45° |
| 2026-05-06 23:14 | 46.79104 | -71.39046 | 253 ft | 13 kts | 45° |
| 2026-05-06 23:14 | 46.79168 | -71.38953 | 253 ft | 13 kts | 45° |
| 2026-05-06 23:14 | 46.79192 | -71.38846 | 253 ft | 12 kts | 116° |
| 2026-05-06 23:15 | 46.79123 | -71.38775 | 253 ft | 13 kts | 151° |
| 2026-05-06 23:15 | 46.79052 | -71.38700 | 253 ft | 13 kts | 115° |
| 2026-05-06 23:15 | 46.79104 | -71.38619 | 253 ft | 12 kts | 12° |
| 2026-05-06 23:15 | 46.79177 | -71.38599 | 253 ft | 7 kts | 11° |
| 2026-05-06 23:16 | 46.79191 | -71.38542 | 253 ft | 7 kts | 97° |
| 2026-05-06 23:16 | 46.79184 | -71.38491 | 253 ft | 4 kts | 100° |
| 2026-05-06 23:16 | 46.79183 | -71.38484 | 253 ft | 0 kts | 100° |